PASN/SNP METAR and TAF weather

Enter ICAO airport designator
Station Type Date Time Source
PASN METAR 2019/08/22 03:53 UTC NOAA

PASN 220353Z AUTO 04015KT 10SM FEW011 14/11 A2965 RMK AO2 SLP041 T01390106 TSNO


Station Type Date Time Source
PASN Decoded METAR 2019/08/22 03:53 UTC NOAA

Station name not available
Aug 21, 2019 - 11:53 PM EDT / 2019.08.22 0353 UTC
Wind: from the NE (040 degrees) at 17 MPH (15 KT):0
Visibility: 10 mile(s):0
Sky conditions: mostly clear
Temperature: 57.0 F (13.9 C)
Dew Point: 51.1 F (10.6 C)
Relative Humidity: 80%
Pressure (altimeter): 29.65 in. Hg (1004 hPa)
ob: PASN 220353Z AUTO 04015KT 10SM FEW011 14/11 A2965 RMK AO2 SLP041 T01390106 TSNO
cycle: 4

Station Type Date Time Source
PASN TAF 2019/08/22 01:48 UTC NOAA

TAF
AMD PASN 220046Z 2201/2224 06015KT 6SM BR SCT015 BKN025
TEMPO 2201/2205 06015G25KT SCT020
FM220500 04015KT 4SM BR OVC008
FM221200 36010KT 3SM BR OVC005

Example: see airport list